createdAt,value
2022-12-25T00:00:21.056Z,4.76
2022-12-25T00:02:50.040Z,4.90
2022-12-25T00:05:18.842Z,5.05
2022-12-25T00:07:47.541Z,4.99
2022-12-25T00:10:16.110Z,4.94
2022-12-25T00:12:46.404Z,4.52
2022-12-25T00:15:15.181Z,4.87
2022-12-25T00:17:43.972Z,4.86
2022-12-25T00:20:12.928Z,4.88
2022-12-25T00:22:41.481Z,4.79
2022-12-25T00:25:10.718Z,4.94
2022-12-25T00:27:39.324Z,4.88
2022-12-25T00:30:11.275Z,4.35
2022-12-25T00:32:40.036Z,4.88
2022-12-25T00:35:09.330Z,4.78
2022-12-25T00:37:38.075Z,4.02
2022-12-25T00:40:07.500Z,4.81
2022-12-25T00:42:36.336Z,4.94
2022-12-25T00:45:06.048Z,4.97
2022-12-25T00:47:36.220Z,4.99
2022-12-25T00:50:05.259Z,5.03
2022-12-25T00:52:34.379Z,4.98
2022-12-25T00:55:03.092Z,4.83
2022-12-25T00:57:31.644Z,4.84
2022-12-25T01:00:00.265Z,4.88
2022-12-25T01:02:29.097Z,4.89
2022-12-25T01:04:59.868Z,4.66
2022-12-25T01:07:29.289Z,4.80
2022-12-25T01:10:15.223Z,4.89
2022-12-25T01:12:45.131Z,4.87
2022-12-25T01:15:14.834Z,4.69
2022-12-25T01:17:44.075Z,4.77
2022-12-25T01:20:17.119Z,4.79
2022-12-25T01:22:46.739Z,4.82
2022-12-25T01:25:15.348Z,4.80
2022-12-25T01:27:44.042Z,4.84
2022-12-25T01:30:13.510Z,4.72
2022-12-25T01:32:42.243Z,3.59
2022-12-25T01:35:12.272Z,4.89
2022-12-25T01:37:42.398Z,4.72
2022-12-25T01:40:11.826Z,3.71
2022-12-25T01:42:40.675Z,4.84
2022-12-25T01:45:35.606Z,4.73
2022-12-25T01:48:07.687Z,4.86
2022-12-25T01:50:37.992Z,4.72
2022-12-25T01:53:08.990Z,4.83
2022-12-25T01:55:38.711Z,4.81
2022-12-25T01:58:07.520Z,4.93
2022-12-25T02:00:36.163Z,4.80
2022-12-25T02:03:05.678Z,4.91
2022-12-25T02:05:35.812Z,4.88
2022-12-25T02:08:09.939Z,4.95
2022-12-25T02:10:39.459Z,4.87
2022-12-25T02:13:09.611Z,4.80
2022-12-25T02:15:47.394Z,4.76
2022-12-25T02:18:24.388Z,4.75
2022-12-25T02:21:10.493Z,4.56
2022-12-25T02:24:24.948Z,4.72
2022-12-25T02:27:17.779Z,4.71
2022-12-25T02:29:55.086Z,4.61
2022-12-25T02:32:32.463Z,3.98
2022-12-25T02:35:05.800Z,4.74
2022-12-25T02:37:40.466Z,4.79
2022-12-25T02:40:15.884Z,4.94
2022-12-25T02:43:06.507Z,4.82
2022-12-25T02:45:59.389Z,4.03
2022-12-25T02:48:49.743Z,4.02
2022-12-25T02:51:39.959Z,4.49
2022-12-25T02:54:29.969Z,4.53
2022-12-25T02:57:19.041Z,4.63
2022-12-25T03:00:07.139Z,4.64
2022-12-25T03:02:54.720Z,4.68
2022-12-25T03:05:44.311Z,4.17
2022-12-25T03:08:17.808Z,4.79
2022-12-25T03:11:05.349Z,4.04
2022-12-25T03:13:39.788Z,4.74
2022-12-25T03:16:26.713Z,4.50
2022-12-25T03:18:59.061Z,4.60
2022-12-25T03:21:44.991Z,4.59
2022-12-25T03:24:31.089Z,4.56
2022-12-25T03:26:59.794Z,4.30
2022-12-25T03:29:49.650Z,4.33
2022-12-25T03:32:27.049Z,4.35
2022-12-25T03:35:21.872Z,4.29
2022-12-25T03:38:18.051Z,4.38
2022-12-25T03:41:16.001Z,4.29
2022-12-25T03:44:10.987Z,4.41
2022-12-25T03:47:07.192Z,3.68
2022-12-25T03:50:01.493Z,4.21
2022-12-25T03:52:52.272Z,4.01
2022-12-25T03:55:39.341Z,3.38
2022-12-25T03:58:36.645Z,4.16
2022-12-25T04:01:22.203Z,3.96
2022-12-25T04:04:08.250Z,2.05
2022-12-25T04:06:53.708Z,3.68
2022-12-25T04:09:52.552Z,3.39
2022-12-25T04:12:38.258Z,3.40
2022-12-25T04:15:24.605Z,3.43
2022-12-25T04:18:11.832Z,2.96
2022-12-25T04:20:57.907Z,3.27
2022-12-25T04:23:43.391Z,3.66
2022-12-25T04:26:45.302Z,3.84
2022-12-25T04:29:31.030Z,3.59
2022-12-25T04:32:17.176Z,3.91
2022-12-25T04:35:03.102Z,3.97
2022-12-25T04:37:31.733Z,3.75
2022-12-25T04:40:00.332Z,3.85
2022-12-25T04:42:30.400Z,3.89
2022-12-25T04:44:59.144Z,3.05
2022-12-25T04:47:28.016Z,3.70
2022-12-25T04:49:56.777Z,3.86
2022-12-25T04:52:25.498Z,3.34
2022-12-25T04:54:54.103Z,3.16
2022-12-25T04:57:22.888Z,2.58
2022-12-25T04:59:52.945Z,3.66
2022-12-25T05:02:21.682Z,3.37
2022-12-25T05:04:50.566Z,3.13
2022-12-25T05:07:19.270Z,3.43
2022-12-25T05:09:48.033Z,3.55
2022-12-25T05:12:16.746Z,3.40
2022-12-25T05:14:45.393Z,3.22
2022-12-25T05:17:15.573Z,3.41
2022-12-25T05:19:44.731Z,3.27
2022-12-25T05:22:13.351Z,3.01
2022-12-25T05:24:41.950Z,3.40
2022-12-25T05:27:10.631Z,3.26
2022-12-25T05:29:39.422Z,2.94
2022-12-25T05:32:08.502Z,3.18
2022-12-25T05:34:38.514Z,2.78
2022-12-25T05:37:08.292Z,2.56
2022-12-25T05:39:37.190Z,2.14
2022-12-25T05:42:05.972Z,3.07
2022-12-25T05:44:34.774Z,3.11
2022-12-25T05:47:03.651Z,2.75
2022-12-25T05:49:32.500Z,1.63
2022-12-25T05:52:02.676Z,2.82
2022-12-25T05:54:31.294Z,3.11
2022-12-25T05:56:59.882Z,3.25
2022-12-25T05:59:31.105Z,3.23
2022-12-25T06:02:00.220Z,3.29
2022-12-25T06:04:29.191Z,3.21
2022-12-25T06:06:57.860Z,3.20
2022-12-25T06:09:28.029Z,2.69
2022-12-25T06:11:56.680Z,2.87
2022-12-25T06:14:25.528Z,2.86
2022-12-25T06:16:55.028Z,2.49
2022-12-25T06:19:24.362Z,2.38
2022-12-25T06:21:55.100Z,2.75
2022-12-25T06:24:24.613Z,2.79
2022-12-25T06:26:54.742Z,2.66
2022-12-25T06:29:23.344Z,2.83
2022-12-25T06:31:57.279Z,2.65
2022-12-25T06:34:26.311Z,2.58
2022-12-25T06:36:55.632Z,2.87
2022-12-25T06:39:25.787Z,2.24
2022-12-25T06:41:56.101Z,2.84
2022-12-25T06:44:24.665Z,2.91
2022-12-25T06:46:55.031Z,2.95
2022-12-25T06:49:23.797Z,2.50
2022-12-25T06:51:52.390Z,3.07
2022-12-25T06:54:21.040Z,3.10
2022-12-25T06:56:50.080Z,3.16
2022-12-25T06:59:20.263Z,3.25
2022-12-25T07:01:51.227Z,3.38
2022-12-25T07:04:25.564Z,3.36
2022-12-25T07:06:54.503Z,3.43
2022-12-25T07:09:23.014Z,3.30
2022-12-25T07:11:51.675Z,3.27
2022-12-25T07:14:24.693Z,3.30
2022-12-25T07:16:53.772Z,2.97
2022-12-25T07:19:22.530Z,3.11
2022-12-25T07:21:51.220Z,3.41
2022-12-25T07:24:21.723Z,3.17
2022-12-25T07:26:50.571Z,3.55
2022-12-25T07:29:21.030Z,3.68
2022-12-25T07:31:49.939Z,3.72
2022-12-25T07:34:19.423Z,2.95
2022-12-25T07:36:48.360Z,3.76
2022-12-25T07:39:17.783Z,3.27
2022-12-25T07:41:46.462Z,3.74
2022-12-25T07:44:15.390Z,3.88
2022-12-25T07:46:45.914Z,3.82
2022-12-25T07:49:14.900Z,3.95
2022-12-25T07:51:43.602Z,3.89
2022-12-25T07:54:12.100Z,3.56
2022-12-25T07:56:40.813Z,4.05
2022-12-25T07:59:11.048Z,3.60
2022-12-25T08:01:39.836Z,3.91
2022-12-25T08:04:11.967Z,4.01
2022-12-25T08:06:40.810Z,3.75
2022-12-25T08:09:11.132Z,3.86
2022-12-25T08:11:40.440Z,3.73
2022-12-25T08:14:09.786Z,4.08
2022-12-25T08:16:41.800Z,4.16
2022-12-25T08:19:12.617Z,1.65
2022-12-25T08:21:41.243Z,4.26
2022-12-25T08:24:11.032Z,4.22
2022-12-25T08:26:39.754Z,4.35
2022-12-25T08:29:08.433Z,4.06
2022-12-25T08:31:42.477Z,4.56
2022-12-25T08:34:16.571Z,4.35
2022-12-25T08:36:45.225Z,4.52
2022-12-25T08:39:13.901Z,4.40
2022-12-25T08:41:42.581Z,4.56
2022-12-25T08:44:14.113Z,4.91
2022-12-25T08:46:43.017Z,4.81
2022-12-25T08:49:12.271Z,4.72
2022-12-25T08:51:42.391Z,4.96
2022-12-25T08:54:11.861Z,4.78
2022-12-25T08:56:40.463Z,5.05
2022-12-25T08:59:09.282Z,4.03
2022-12-25T09:01:38.228Z,5.18
2022-12-25T09:04:07.126Z,5.26
2022-12-25T09:06:35.711Z,5.35
2022-12-25T09:09:06.108Z,5.46
2022-12-25T09:11:35.138Z,5.53
2022-12-25T09:14:03.790Z,5.77
2022-12-25T09:16:33.188Z,5.39
2022-12-25T09:19:01.978Z,5.83
2022-12-25T09:21:30.584Z,5.82
2022-12-25T09:23:59.531Z,5.78
2022-12-25T09:26:29.550Z,5.96
2022-12-25T09:28:58.450Z,5.93
2022-12-25T09:31:27.335Z,5.94
2022-12-25T09:33:58.801Z,6.08
2022-12-25T09:36:28.929Z,5.33
2022-12-25T09:38:57.642Z,6.77
2022-12-25T09:41:35.047Z,7.03
2022-12-25T09:44:08.541Z,6.60
2022-12-25T09:46:43.517Z,6.83
2022-12-25T09:49:21.987Z,6.97
2022-12-25T09:51:56.848Z,6.81
2022-12-25T09:54:38.133Z,7.03
2022-12-25T09:57:13.484Z,7.11
2022-12-25T09:59:45.241Z,7.02
2022-12-25T10:02:44.669Z,7.42
2022-12-25T10:05:46.161Z,7.44
2022-12-25T10:08:26.411Z,7.65
2022-12-25T10:11:04.910Z,7.65
2022-12-25T10:13:47.934Z,7.81
2022-12-25T10:16:28.617Z,7.92
2022-12-25T10:19:12.390Z,8.00
2022-12-25T10:21:41.262Z,7.97
2022-12-25T10:24:24.989Z,8.20
2022-12-25T10:26:55.397Z,8.25
2022-12-25T10:29:25.501Z,7.97
2022-12-25T10:31:56.971Z,8.31
2022-12-25T10:34:28.099Z,8.49
2022-12-25T10:36:56.741Z,8.62
2022-12-25T10:39:27.123Z,8.61
2022-12-25T10:42:20.870Z,8.82
2022-12-25T10:45:01.916Z,8.96
2022-12-25T10:47:32.985Z,8.01
2022-12-25T10:50:03.099Z,9.17
2022-12-25T10:52:31.740Z,9.25
2022-12-25T10:55:00.281Z,9.45
2022-12-25T10:57:30.093Z,9.43
2022-12-25T11:00:01.987Z,9.68
2022-12-25T11:02:32.781Z,10.05
2022-12-25T11:05:04.094Z,10.20
2022-12-25T11:07:33.893Z,10.34
2022-12-25T11:10:05.951Z,9.99
2022-12-25T11:12:38.193Z,9.83
2022-12-25T11:15:24.581Z,10.74
2022-12-25T11:17:53.224Z,10.98
2022-12-25T11:20:22.521Z,11.18
2022-12-25T11:22:51.739Z,11.31
2022-12-25T11:25:25.110Z,11.42
2022-12-25T11:27:59.653Z,11.56
2022-12-25T11:30:31.449Z,11.70
2022-12-25T11:33:03.424Z,11.88
2022-12-25T11:35:38.942Z,12.05
2022-12-25T11:38:10.151Z,12.15
2022-12-25T11:40:45.481Z,12.28
2022-12-25T11:43:20.441Z,12.38
2022-12-25T11:45:55.471Z,12.60
2022-12-25T11:48:29.790Z,12.77
2022-12-25T11:51:01.677Z,12.87
2022-12-25T11:53:33.219Z,12.99
2022-12-25T11:56:04.861Z,13.11
2022-12-25T11:58:37.820Z,13.15
2022-12-25T12:01:17.550Z,11.43
2022-12-25T12:03:46.972Z,13.39
2022-12-25T12:06:21.628Z,13.49
2022-12-25T12:08:57.682Z,13.40
2022-12-25T12:11:34.261Z,13.65
2022-12-25T12:14:15.472Z,13.82
2022-12-25T12:16:45.685Z,13.19
2022-12-25T12:19:26.284Z,14.06
2022-12-25T12:21:57.449Z,12.39
2022-12-25T12:24:30.008Z,13.96
2022-12-25T12:27:04.877Z,13.94
2022-12-25T12:29:39.758Z,14.11
2022-12-25T12:32:29.531Z,14.34
2022-12-25T12:34:59.815Z,14.64
2022-12-25T12:37:32.107Z,14.68
2022-12-25T12:40:02.225Z,14.65
2022-12-25T12:42:34.989Z,14.67
2022-12-25T12:45:10.339Z,14.60
2022-12-25T12:47:44.916Z,14.46
2022-12-25T12:50:30.623Z,14.24
2022-12-25T12:53:00.032Z,13.74
2022-12-25T12:55:33.164Z,14.22
2022-12-25T12:58:03.129Z,14.37
2022-12-25T13:00:42.503Z,14.81
2022-12-25T13:03:27.512Z,15.59
2022-12-25T13:06:01.132Z,15.99
2022-12-25T13:08:48.448Z,15.99
2022-12-25T13:11:21.009Z,16.27
2022-12-25T13:13:52.254Z,16.65
2022-12-25T13:16:28.054Z,16.83
2022-12-25T13:18:59.089Z,16.55
2022-12-25T13:21:30.124Z,17.42
2022-12-25T13:24:01.140Z,17.45
2022-12-25T13:26:30.521Z,17.35
2022-12-25T13:28:59.878Z,17.22
2022-12-25T13:31:29.955Z,16.57
2022-12-25T13:34:02.829Z,17.08
2022-12-25T13:36:37.200Z,16.81
2022-12-25T13:39:10.128Z,16.50
2022-12-25T13:42:02.064Z,16.24
2022-12-25T13:44:36.013Z,16.36
2022-12-25T13:47:17.500Z,16.10
2022-12-25T13:49:48.484Z,15.66
2022-12-25T13:52:21.466Z,15.25
2022-12-25T13:54:57.416Z,14.75
2022-12-25T13:57:29.401Z,14.30
2022-12-25T13:59:58.626Z,13.24
2022-12-25T14:02:33.094Z,13.61
2022-12-25T14:05:03.818Z,13.33
2022-12-25T14:07:32.550Z,13.12
2022-12-25T14:10:03.125Z,12.92
2022-12-25T14:12:34.517Z,12.79
2022-12-25T14:15:05.194Z,12.48
2022-12-25T14:17:34.969Z,12.30
2022-12-25T14:20:08.598Z,12.13
2022-12-25T14:22:38.804Z,11.92
2022-12-25T14:25:17.446Z,11.56
2022-12-25T14:27:51.221Z,11.60
2022-12-25T14:30:20.690Z,11.38
2022-12-25T14:32:52.274Z,11.18
2022-12-25T14:35:24.001Z,11.01
2022-12-25T14:37:57.985Z,10.83
2022-12-25T14:40:30.696Z,10.68
2022-12-25T14:43:00.826Z,10.60
2022-12-25T14:45:33.014Z,10.55
2022-12-25T14:48:04.352Z,10.41
2022-12-25T14:50:39.726Z,10.22
2022-12-25T14:53:20.067Z,10.15
2022-12-25T14:55:52.483Z,10.08
2022-12-25T14:58:24.009Z,9.91
2022-12-25T15:00:57.989Z,9.76
2022-12-25T15:03:31.108Z,8.51
2022-12-25T15:06:03.399Z,9.41
2022-12-25T15:08:33.821Z,8.50
2022-12-25T15:11:03.535Z,9.15
2022-12-25T15:13:34.421Z,9.03
2022-12-25T15:16:08.360Z,8.53
2022-12-25T15:18:40.179Z,8.70
2022-12-25T15:21:16.869Z,8.57
2022-12-25T15:23:45.669Z,8.52
2022-12-25T15:26:15.531Z,8.24
2022-12-25T15:28:44.160Z,8.25
2022-12-25T15:31:22.325Z,8.17
2022-12-25T15:33:51.193Z,8.15
2022-12-25T15:36:21.220Z,8.07
2022-12-25T15:38:50.089Z,7.99
2022-12-25T15:41:34.685Z,7.96
2022-12-25T15:44:03.765Z,7.96
2022-12-25T15:46:32.816Z,7.84
2022-12-25T15:49:01.823Z,7.58
2022-12-25T15:51:32.251Z,7.45
2022-12-25T15:54:01.021Z,7.46
2022-12-25T15:56:31.130Z,7.40
2022-12-25T15:58:59.849Z,7.35
2022-12-25T16:01:28.639Z,6.57
2022-12-25T16:03:57.384Z,7.25
2022-12-25T16:06:27.630Z,7.11
2022-12-25T16:08:57.810Z,7.17
2022-12-25T16:11:26.470Z,7.06
2022-12-25T16:13:55.455Z,7.07
2022-12-25T16:16:24.108Z,6.65
2022-12-25T16:18:52.848Z,6.95
2022-12-25T16:21:23.463Z,6.95
2022-12-25T16:23:52.182Z,6.88
2022-12-25T16:26:22.170Z,6.84
2022-12-25T16:28:50.943Z,6.78
2022-12-25T16:31:19.531Z,6.70
2022-12-25T16:33:48.315Z,6.18
2022-12-25T16:36:20.721Z,6.44
2022-12-25T16:38:53.870Z,6.38
2022-12-25T16:41:24.699Z,6.48
2022-12-25T16:43:53.402Z,6.46
2022-12-25T16:46:23.661Z,6.43
2022-12-25T16:48:52.370Z,6.34
2022-12-25T16:51:22.641Z,6.37
2022-12-25T16:53:51.311Z,6.31
2022-12-25T16:56:25.527Z,6.28
2022-12-25T16:58:56.482Z,5.79
2022-12-25T17:01:26.502Z,6.18
2022-12-25T17:03:55.383Z,5.95
2022-12-25T17:06:26.201Z,6.13
2022-12-25T17:08:57.810Z,6.05
2022-12-25T17:11:30.079Z,5.97
2022-12-25T17:14:02.792Z,6.03
2022-12-25T17:16:33.272Z,5.93
2022-12-25T17:19:04.347Z,5.89
2022-12-25T17:21:34.577Z,5.87
2022-12-25T17:24:04.517Z,5.94
2022-12-25T17:26:33.222Z,5.76
2022-12-25T17:29:03.453Z,4.96
2022-12-25T17:31:32.078Z,5.23
2022-12-25T17:34:03.071Z,5.50
2022-12-25T17:36:32.380Z,5.75
2022-12-25T17:39:01.727Z,5.50
2022-12-25T17:41:30.497Z,5.47
2022-12-25T17:43:59.189Z,5.49
2022-12-25T17:46:31.056Z,5.49
2022-12-25T17:49:01.758Z,5.51
2022-12-25T17:51:32.308Z,5.45
2022-12-25T17:54:04.505Z,5.40
2022-12-25T17:56:34.569Z,5.28
2022-12-25T17:59:06.975Z,5.39
2022-12-25T18:01:38.669Z,5.39
2022-12-25T18:04:08.794Z,5.29
2022-12-25T18:06:38.661Z,5.03
2022-12-25T18:09:08.103Z,5.35
2022-12-25T18:11:40.618Z,5.20
2022-12-25T18:14:11.162Z,5.17
2022-12-25T18:16:43.741Z,5.15
2022-12-25T18:19:13.700Z,5.15
2022-12-25T18:21:42.652Z,4.99
2022-12-25T18:24:11.870Z,4.56
2022-12-25T18:26:40.549Z,5.07
2022-12-25T18:29:09.169Z,5.03
2022-12-25T18:31:37.920Z,5.04
2022-12-25T18:34:08.188Z,4.99
2022-12-25T18:36:37.127Z,4.95
2022-12-25T18:39:06.415Z,4.96
2022-12-25T18:41:54.973Z,4.91
2022-12-25T18:44:23.451Z,4.88
2022-12-25T18:46:52.896Z,4.84
2022-12-25T18:49:23.581Z,4.79
2022-12-25T18:51:52.395Z,4.66
2022-12-25T18:54:21.310Z,4.77
2022-12-25T18:56:53.563Z,4.74
2022-12-25T18:59:22.480Z,4.75
2022-12-25T19:01:51.482Z,4.68
2022-12-25T19:04:20.285Z,4.61
2022-12-25T19:06:50.639Z,4.51
2022-12-25T19:09:20.506Z,4.64
2022-12-25T19:11:49.256Z,4.50
2022-12-25T19:14:17.889Z,4.66
2022-12-25T19:16:46.500Z,3.90
2022-12-25T19:19:15.280Z,3.98
2022-12-25T19:21:44.432Z,4.66
2022-12-25T19:24:15.102Z,4.56
2022-12-25T19:26:43.928Z,4.27
2022-12-25T19:29:12.724Z,4.40
2022-12-25T19:31:41.978Z,4.32
2022-12-25T19:34:12.112Z,4.30
2022-12-25T19:36:40.991Z,4.28
2022-12-25T19:39:12.533Z,3.85
2022-12-25T19:41:42.591Z,4.28
2022-12-25T19:44:11.208Z,4.29
2022-12-25T19:46:42.018Z,4.27
2022-12-25T19:49:14.215Z,4.26
2022-12-25T19:51:45.441Z,4.16
2022-12-25T19:54:15.584Z,4.25
2022-12-25T19:56:45.741Z,4.26
2022-12-25T19:59:14.819Z,4.28
2022-12-25T20:01:44.331Z,3.89
2022-12-25T20:04:13.137Z,4.10
2022-12-25T20:06:42.912Z,3.94
2022-12-25T20:09:14.365Z,4.14
2022-12-25T20:11:44.710Z,4.06
2022-12-25T20:14:14.772Z,3.99
2022-12-25T20:16:44.105Z,3.79
2022-12-25T20:19:13.870Z,3.97
2022-12-25T20:21:43.221Z,3.19
2022-12-25T20:24:12.070Z,3.92
2022-12-25T20:26:41.188Z,3.84
2022-12-25T20:29:11.551Z,3.79
2022-12-25T20:31:40.301Z,3.82
2022-12-25T20:34:12.401Z,3.83
2022-12-25T20:36:41.212Z,3.78
2022-12-25T20:39:12.986Z,3.56
2022-12-25T20:41:41.695Z,3.86
2022-12-25T20:44:13.387Z,3.89
2022-12-25T20:46:42.175Z,3.88
2022-12-25T20:49:10.793Z,3.94
2022-12-25T20:51:39.463Z,3.98
2022-12-25T20:54:09.955Z,3.82
2022-12-25T20:56:38.980Z,3.85
2022-12-25T20:59:07.637Z,3.38
2022-12-25T21:01:37.786Z,3.64
2022-12-25T21:04:07.249Z,3.59
2022-12-25T21:06:36.590Z,3.56
2022-12-25T21:09:05.425Z,3.53
2022-12-25T21:11:34.014Z,3.57
2022-12-25T21:14:02.755Z,3.53
2022-12-25T21:16:33.151Z,3.58
2022-12-25T21:19:03.482Z,3.40
2022-12-25T21:21:32.063Z,3.34
2022-12-25T21:24:00.654Z,3.42
2022-12-25T21:26:31.630Z,3.42
2022-12-25T21:29:02.495Z,3.33
2022-12-25T21:31:31.569Z,3.44
2022-12-25T21:33:59.952Z,3.54
2022-12-25T21:36:33.512Z,3.39
2022-12-25T21:39:04.288Z,3.26
2022-12-25T21:41:34.116Z,3.08
2022-12-25T21:44:03.511Z,3.18
2022-12-25T21:46:32.369Z,3.17
2022-12-25T21:49:01.922Z,3.25
2022-12-25T21:51:51.238Z,3.26
2022-12-25T21:54:21.152Z,3.20
2022-12-25T21:56:50.467Z,3.33
2022-12-25T21:59:20.667Z,3.10
2022-12-25T22:01:50.170Z,2.91
2022-12-25T22:04:21.086Z,3.06
2022-12-25T22:07:13.762Z,2.44
2022-12-25T22:09:44.972Z,3.22
2022-12-25T22:12:34.330Z,3.20
2022-12-25T22:15:06.986Z,3.09
2022-12-25T22:17:54.931Z,3.13
2022-12-25T22:20:25.431Z,3.03
2022-12-25T22:22:56.162Z,3.10
2022-12-25T22:25:25.987Z,3.04
2022-12-25T22:27:54.764Z,2.86
2022-12-25T22:30:26.732Z,2.86
2022-12-25T22:32:55.648Z,3.07
2022-12-25T22:35:24.665Z,3.24
2022-12-25T22:37:54.931Z,3.11
2022-12-25T22:40:23.767Z,3.12
2022-12-25T22:42:55.532Z,2.96
2022-12-25T22:45:24.302Z,2.86
2022-12-25T22:47:53.094Z,2.65
2022-12-25T22:50:21.932Z,2.81
2022-12-25T22:52:50.700Z,2.82
2022-12-25T22:55:21.093Z,2.83
2022-12-25T22:57:50.631Z,2.92
2022-12-25T23:00:19.381Z,2.93
2022-12-25T23:02:48.503Z,2.80
2022-12-25T23:05:17.521Z,2.96
2022-12-25T23:07:46.500Z,2.82
2022-12-25T23:10:15.511Z,2.75
2022-12-25T23:13:03.171Z,2.70
2022-12-25T23:15:33.041Z,2.72
2022-12-25T23:18:19.198Z,2.59
2022-12-25T23:21:05.509Z,2.17
2022-12-25T23:23:51.510Z,2.50
2022-12-25T23:26:22.161Z,2.24
2022-12-25T23:29:09.797Z,2.75
2022-12-25T23:31:42.206Z,2.76
2022-12-25T23:34:11.518Z,2.75
2022-12-25T23:36:40.062Z,2.76
2022-12-25T23:39:10.438Z,2.73
2022-12-25T23:41:40.027Z,2.66
2022-12-25T23:44:11.341Z,2.66
2022-12-25T23:46:40.455Z,2.70
2022-12-25T23:49:10.282Z,2.65
2022-12-25T23:51:43.180Z,2.79
2022-12-25T23:54:13.350Z,2.72
2022-12-25T23:56:42.906Z,2.62
2022-12-25T23:59:14.563Z,2.34
